createdAt,value
2023-05-18T00:00:30.545Z,2.92
2023-05-18T00:02:58.166Z,2.87
2023-05-18T00:05:25.168Z,2.85
2023-05-18T00:07:53.252Z,2.82
2023-05-18T00:10:20.156Z,2.79
2023-05-18T00:12:47.497Z,2.70
2023-05-18T00:15:14.226Z,2.65
2023-05-18T00:17:40.935Z,2.70
2023-05-18T00:20:10.279Z,2.67
2023-05-18T00:22:39.151Z,2.60
2023-05-18T00:25:05.909Z,2.60
2023-05-18T00:27:32.740Z,2.57
2023-05-18T00:29:59.472Z,2.57
2023-05-18T00:32:26.610Z,2.53
2023-05-18T00:34:53.315Z,2.48
2023-05-18T00:37:19.955Z,2.51
2023-05-18T00:39:47.240Z,2.48
2023-05-18T00:42:13.937Z,2.41
2023-05-18T00:44:40.725Z,2.40
2023-05-18T00:47:07.453Z,2.33
2023-05-18T00:49:34.146Z,2.31
2023-05-18T00:52:01.291Z,2.25
2023-05-18T00:54:28.115Z,2.25
2023-05-18T00:56:55.057Z,2.24
2023-05-18T00:59:22.098Z,2.23
2023-05-18T01:01:49.115Z,2.16
2023-05-18T01:04:15.917Z,2.16
2023-05-18T01:06:43.652Z,2.12
2023-05-18T01:09:12.235Z,2.09
2023-05-18T01:11:51.046Z,2.05
2023-05-18T01:14:49.797Z,2.02
2023-05-18T01:17:35.977Z,1.99
2023-05-18T01:20:28.072Z,1.96
2023-05-18T01:23:17.701Z,1.94
2023-05-18T01:25:54.231Z,1.89
2023-05-18T01:28:26.400Z,1.85
2023-05-18T01:30:53.928Z,1.82
2023-05-18T01:33:20.777Z,1.84
2023-05-18T01:35:50.600Z,1.80
2023-05-18T01:38:19.127Z,1.76
2023-05-18T01:40:57.716Z,1.71
2023-05-18T01:43:30.074Z,1.70
2023-05-18T01:45:59.024Z,1.70
2023-05-18T01:48:26.286Z,1.71
2023-05-18T01:50:56.437Z,1.68
2023-05-18T01:53:38.425Z,1.63
2023-05-18T01:56:09.189Z,1.60
2023-05-18T01:58:37.034Z,1.61
2023-05-18T02:01:04.822Z,1.58
2023-05-18T02:03:33.164Z,1.55
2023-05-18T02:05:59.915Z,1.51
2023-05-18T02:08:27.219Z,1.52
2023-05-18T02:10:53.916Z,1.52
2023-05-18T02:13:20.690Z,1.53
2023-05-18T02:15:47.414Z,1.47
2023-05-18T02:18:14.211Z,1.50
2023-05-18T02:20:41.136Z,1.45
2023-05-18T02:23:07.926Z,1.45
2023-05-18T02:25:34.659Z,1.34
2023-05-18T02:28:01.427Z,1.29
2023-05-18T02:30:29.261Z,1.31
2023-05-18T02:32:57.404Z,1.33
2023-05-18T02:35:26.153Z,1.30
2023-05-18T02:37:53.981Z,1.34
2023-05-18T02:40:20.825Z,1.37
2023-05-18T02:42:47.598Z,1.33
2023-05-18T02:45:14.346Z,1.30
2023-05-18T02:47:44.839Z,1.29
2023-05-18T02:50:11.774Z,1.37
2023-05-18T02:52:39.259Z,1.31
2023-05-18T02:55:06.555Z,1.33
2023-05-18T02:57:57.413Z,1.28
2023-05-18T03:00:41.501Z,1.27
2023-05-18T03:03:15.801Z,1.21
2023-05-18T03:05:44.323Z,1.19
2023-05-18T03:08:11.028Z,1.14
2023-05-18T03:10:37.891Z,1.16
2023-05-18T03:13:04.654Z,1.23
2023-05-18T03:15:32.641Z,1.20
2023-05-18T03:17:59.854Z,1.25
2023-05-18T03:20:28.057Z,1.30
2023-05-18T03:22:54.772Z,1.28
2023-05-18T03:25:22.621Z,1.29
2023-05-18T03:27:49.426Z,1.21
2023-05-18T03:30:16.786Z,1.17
2023-05-18T03:32:43.552Z,1.24
2023-05-18T03:35:10.898Z,1.21
2023-05-18T03:37:37.612Z,1.28
2023-05-18T03:40:13.418Z,1.27
2023-05-18T03:42:42.337Z,1.30
2023-05-18T03:45:10.493Z,1.31
2023-05-18T03:47:38.550Z,1.34
2023-05-18T03:50:06.641Z,1.39
2023-05-18T03:52:34.280Z,1.42
2023-05-18T03:55:01.857Z,1.43
2023-05-18T03:57:29.604Z,1.44
2023-05-18T03:59:56.840Z,1.53
2023-05-18T04:02:24.722Z,1.57
2023-05-18T04:04:53.901Z,1.55
2023-05-18T04:07:22.293Z,1.64
2023-05-18T04:09:49.493Z,1.63
2023-05-18T04:12:16.424Z,1.68
2023-05-18T04:14:43.181Z,1.73
2023-05-18T04:17:10.239Z,1.76
2023-05-18T04:19:38.028Z,1.82
2023-05-18T04:22:06.718Z,1.77
2023-05-18T04:24:34.632Z,1.92
2023-05-18T04:27:02.827Z,2.09
2023-05-18T04:29:30.127Z,2.19
2023-05-18T04:32:03.176Z,2.29
2023-05-18T04:34:31.426Z,2.41
2023-05-18T04:37:00.963Z,2.51
2023-05-18T04:39:27.822Z,2.60
2023-05-18T04:41:58.260Z,2.72
2023-05-18T04:44:31.378Z,2.76
2023-05-18T04:47:00.126Z,2.80
2023-05-18T04:49:28.221Z,2.90
2023-05-18T04:51:56.498Z,3.01
2023-05-18T04:54:24.145Z,3.05
2023-05-18T04:56:51.632Z,3.18
2023-05-18T04:59:18.993Z,3.24
2023-05-18T05:01:46.420Z,3.37
2023-05-18T05:04:13.572Z,3.54
2023-05-18T05:06:41.459Z,3.67
2023-05-18T05:09:08.198Z,3.88
2023-05-18T05:11:35.171Z,4.04
2023-05-18T05:14:03.433Z,4.26
2023-05-18T05:16:31.144Z,4.54
2023-05-18T05:18:57.929Z,4.81
2023-05-18T05:21:25.185Z,4.99
2023-05-18T05:23:52.111Z,5.24
2023-05-18T05:26:19.586Z,5.47
2023-05-18T05:28:46.409Z,5.62
2023-05-18T05:31:13.856Z,5.85
2023-05-18T05:33:40.938Z,6.02
2023-05-18T05:36:08.714Z,6.16
2023-05-18T05:38:35.618Z,6.32
2023-05-18T05:41:02.734Z,6.53
2023-05-18T05:43:29.651Z,6.55
2023-05-18T05:45:56.283Z,6.72
2023-05-18T05:48:23.191Z,6.93
2023-05-18T05:50:49.929Z,7.17
2023-05-18T05:53:19.679Z,7.28
2023-05-18T05:55:47.203Z,7.47
2023-05-18T05:58:16.359Z,7.69
2023-05-18T06:00:48.677Z,7.79
2023-05-18T06:03:15.750Z,7.97
2023-05-18T06:05:45.026Z,8.18
2023-05-18T06:08:13.425Z,8.29
2023-05-18T06:10:41.455Z,8.56
2023-05-18T06:13:09.098Z,8.68
2023-05-18T06:16:02.131Z,8.94
2023-05-18T06:18:28.960Z,8.98
2023-05-18T06:21:00.656Z,9.29
2023-05-18T06:23:27.609Z,9.29
2023-05-18T06:26:03.187Z,9.54
2023-05-18T06:28:47.026Z,9.55
2023-05-18T06:31:40.533Z,9.62
2023-05-18T06:34:27.645Z,9.84
2023-05-18T06:36:54.668Z,9.94
2023-05-18T06:39:21.307Z,10.11
2023-05-18T06:41:48.543Z,10.16
2023-05-18T06:44:22.445Z,10.13
2023-05-18T06:47:15.329Z,10.37
2023-05-18T06:49:42.464Z,10.51
2023-05-18T06:52:10.091Z,10.57
2023-05-18T06:54:38.500Z,10.73
2023-05-18T06:57:06.147Z,11.00
2023-05-18T06:59:34.663Z,11.05
2023-05-18T07:02:01.493Z,10.92
2023-05-18T07:04:29.797Z,11.00
2023-05-18T07:06:56.535Z,11.13
2023-05-18T07:09:23.965Z,11.14
2023-05-18T07:11:50.735Z,11.36
2023-05-18T07:14:17.408Z,11.23
2023-05-18T07:16:47.158Z,11.31
2023-05-18T07:19:15.005Z,11.52
2023-05-18T07:21:42.270Z,11.66
2023-05-18T07:24:09.021Z,11.82
2023-05-18T07:26:35.929Z,11.86
2023-05-18T07:29:02.741Z,12.01
2023-05-18T07:31:29.593Z,12.12
2023-05-18T07:33:56.261Z,12.16
2023-05-18T07:36:24.111Z,12.32
2023-05-18T07:38:54.953Z,12.22
2023-05-18T07:41:22.942Z,12.29
2023-05-18T07:43:50.967Z,12.17
2023-05-18T07:46:18.345Z,12.08
2023-05-18T07:48:47.793Z,12.01
2023-05-18T07:51:14.543Z,11.89
2023-05-18T07:53:41.598Z,12.05
2023-05-18T07:56:09.189Z,12.31
2023-05-18T07:58:36.464Z,12.44
2023-05-18T08:01:03.884Z,12.37
2023-05-18T08:03:30.784Z,12.31
2023-05-18T08:05:57.560Z,12.24
2023-05-18T08:08:24.442Z,12.23
2023-05-18T08:10:52.161Z,12.37
2023-05-18T08:13:19.130Z,12.37
2023-05-18T08:15:50.837Z,12.64
2023-05-18T08:18:23.025Z,12.84
2023-05-18T08:20:49.690Z,12.94
2023-05-18T08:23:16.470Z,12.78
2023-05-18T08:25:43.148Z,12.89
2023-05-18T08:28:10.037Z,12.94
2023-05-18T08:30:36.730Z,13.13
2023-05-18T08:33:03.622Z,12.99
2023-05-18T08:35:30.739Z,12.88
2023-05-18T08:37:57.633Z,12.95
2023-05-18T08:40:28.271Z,13.10
2023-05-18T08:43:00.999Z,13.24
2023-05-18T08:45:34.018Z,13.29
2023-05-18T08:48:01.550Z,13.40
2023-05-18T08:50:31.788Z,13.31
2023-05-18T08:53:03.003Z,13.20
2023-05-18T08:55:30.615Z,13.27
2023-05-18T08:57:59.991Z,13.25
2023-05-18T09:00:27.246Z,13.29
2023-05-18T09:02:54.261Z,13.49
2023-05-18T09:05:21.563Z,13.54
2023-05-18T09:07:50.899Z,13.53
2023-05-18T09:10:18.099Z,13.40
2023-05-18T09:12:47.045Z,13.29
2023-05-18T09:15:15.488Z,13.41
2023-05-18T09:17:42.213Z,13.55
2023-05-18T09:20:09.387Z,13.60
2023-05-18T09:22:36.634Z,13.68
2023-05-18T09:25:04.080Z,13.72
2023-05-18T09:27:31.286Z,13.77
2023-05-18T09:29:58.820Z,13.77
2023-05-18T09:32:26.152Z,13.99
2023-05-18T09:34:53.922Z,13.88
2023-05-18T09:37:21.655Z,13.80
2023-05-18T09:40:07.623Z,13.75
2023-05-18T09:42:42.711Z,13.83
2023-05-18T09:45:23.757Z,13.85
2023-05-18T09:47:51.665Z,13.82
2023-05-18T09:50:24.439Z,13.99
2023-05-18T09:52:51.279Z,13.93
2023-05-18T09:55:19.330Z,13.95
2023-05-18T09:57:47.858Z,14.02
2023-05-18T10:00:15.773Z,14.14
2023-05-18T10:02:48.672Z,14.09
2023-05-18T10:05:22.391Z,14.24
2023-05-18T10:07:51.149Z,14.42
2023-05-18T10:10:22.155Z,14.47
2023-05-18T10:12:51.695Z,14.41
2023-05-18T10:15:20.781Z,14.47
2023-05-18T10:17:48.576Z,14.54
2023-05-18T10:20:19.700Z,14.71
2023-05-18T10:22:48.045Z,14.96
2023-05-18T10:25:22.317Z,14.88
2023-05-18T10:27:50.439Z,14.87
2023-05-18T10:30:20.223Z,14.97
2023-05-18T10:32:47.780Z,15.22
2023-05-18T10:35:14.938Z,15.16
2023-05-18T10:37:47.880Z,15.13
2023-05-18T10:40:18.386Z,15.09
2023-05-18T10:42:45.942Z,15.13
2023-05-18T10:45:12.645Z,15.27
2023-05-18T10:47:40.446Z,15.26
2023-05-18T10:50:08.750Z,15.14
2023-05-18T10:52:37.469Z,15.28
2023-05-18T10:55:04.634Z,15.28
2023-05-18T10:57:40.069Z,15.29
2023-05-18T11:00:09.375Z,15.40
2023-05-18T11:02:40.163Z,15.37
2023-05-18T11:05:07.675Z,15.59
2023-05-18T11:07:34.481Z,15.62
2023-05-18T11:10:02.603Z,15.74
2023-05-18T11:12:32.938Z,15.93
2023-05-18T11:15:01.042Z,15.92
2023-05-18T11:17:30.885Z,15.81
2023-05-18T11:20:18.004Z,15.98
2023-05-18T11:22:52.541Z,16.25
2023-05-18T11:25:28.758Z,16.21
2023-05-18T11:28:10.602Z,16.02
2023-05-18T11:30:37.416Z,15.63
2023-05-18T11:33:11.185Z,15.61
2023-05-18T11:36:08.935Z,15.86
2023-05-18T11:38:45.936Z,16.27
2023-05-18T11:41:35.649Z,16.74
2023-05-18T11:44:07.264Z,17.20
2023-05-18T11:46:34.101Z,17.19
2023-05-18T11:49:21.781Z,17.12
2023-05-18T11:52:00.865Z,17.13
2023-05-18T11:54:27.945Z,17.21
2023-05-18T11:56:54.792Z,17.32
2023-05-18T11:59:32.460Z,17.49
2023-05-18T12:02:01.243Z,17.71
2023-05-18T12:04:29.426Z,17.45
2023-05-18T12:06:57.349Z,17.26
2023-05-18T12:09:24.870Z,17.11
2023-05-18T12:11:52.315Z,17.34
2023-05-18T12:14:20.487Z,17.38
2023-05-18T12:16:48.435Z,17.48
2023-05-18T12:19:15.686Z,17.33
2023-05-18T12:21:42.660Z,16.86
2023-05-18T12:24:09.492Z,16.79
2023-05-18T12:26:36.221Z,16.91
2023-05-18T12:29:03.002Z,17.24
2023-05-18T12:31:30.223Z,17.58
2023-05-18T12:33:59.200Z,18.21
2023-05-18T12:36:27.405Z,17.76
2023-05-18T12:38:54.170Z,18.22
2023-05-18T12:41:27.170Z,18.28
2023-05-18T12:43:55.060Z,18.46
2023-05-18T12:46:25.009Z,18.44
2023-05-18T12:48:58.960Z,18.38
2023-05-18T12:51:30.974Z,17.51
2023-05-18T12:53:57.863Z,17.28
2023-05-18T12:56:27.292Z,17.26
2023-05-18T12:59:00.791Z,17.28
2023-05-18T13:01:28.069Z,17.64
2023-05-18T13:03:56.863Z,17.74
2023-05-18T13:06:23.707Z,17.74
2023-05-18T13:08:54.045Z,18.03
2023-05-18T13:11:23.624Z,18.23
2023-05-18T13:14:01.193Z,18.59
2023-05-18T13:16:30.303Z,18.62
2023-05-18T13:19:03.262Z,18.20
2023-05-18T13:21:30.174Z,18.01
2023-05-18T13:23:57.110Z,17.72
2023-05-18T13:26:25.081Z,17.47
2023-05-18T13:28:55.012Z,17.42
2023-05-18T13:31:22.341Z,17.66
2023-05-18T13:33:50.117Z,17.76
2023-05-18T13:36:17.702Z,18.26
2023-05-18T13:38:44.394Z,18.45
2023-05-18T13:41:12.375Z,18.64
2023-05-18T13:43:39.117Z,18.76
2023-05-18T13:46:06.219Z,18.60
2023-05-18T13:48:32.976Z,18.54
2023-05-18T13:50:59.936Z,18.61
2023-05-18T13:53:26.686Z,18.38
2023-05-18T13:55:53.387Z,18.52
2023-05-18T13:58:20.035Z,18.68
2023-05-18T14:00:46.837Z,19.17
2023-05-18T14:03:15.331Z,19.69
2023-05-18T14:05:42.314Z,20.28
2023-05-18T14:08:09.072Z,20.10
2023-05-18T14:10:35.975Z,19.97
2023-05-18T14:13:02.646Z,19.85
2023-05-18T14:15:29.540Z,19.51
2023-05-18T14:17:56.259Z,19.15
2023-05-18T14:20:23.051Z,20.01
2023-05-18T14:22:49.680Z,20.15
2023-05-18T14:25:16.973Z,20.18
2023-05-18T14:27:43.726Z,19.63
2023-05-18T14:30:10.808Z,19.15
2023-05-18T14:32:37.579Z,19.25
2023-05-18T14:35:04.732Z,19.21
2023-05-18T14:37:32.890Z,19.26
2023-05-18T14:39:59.857Z,19.56
2023-05-18T14:42:26.735Z,19.82
2023-05-18T14:44:53.428Z,20.09
2023-05-18T14:47:20.156Z,19.24
2023-05-18T14:49:47.014Z,19.09
2023-05-18T14:52:14.295Z,19.29
2023-05-18T14:54:42.279Z,20.04
2023-05-18T14:57:09.056Z,20.47
2023-05-18T14:59:35.841Z,20.23
2023-05-18T15:02:02.600Z,19.82
2023-05-18T15:04:29.390Z,19.84
2023-05-18T15:06:56.083Z,20.62
2023-05-18T15:09:25.302Z,20.53
2023-05-18T15:11:53.480Z,21.30
2023-05-18T15:14:20.175Z,22.02
2023-05-18T15:16:46.999Z,21.57
2023-05-18T15:19:13.798Z,21.89
2023-05-18T15:21:40.972Z,20.44
2023-05-18T15:24:07.947Z,19.80
2023-05-18T15:26:34.819Z,19.45
2023-05-18T15:29:01.683Z,19.98
2023-05-18T15:31:28.432Z,19.64
2023-05-18T15:33:55.169Z,19.10
2023-05-18T15:36:21.982Z,18.74
2023-05-18T15:38:48.632Z,19.06
2023-05-18T15:41:15.363Z,19.81
2023-05-18T15:43:42.058Z,20.05
2023-05-18T15:46:08.916Z,20.29
2023-05-18T15:48:35.729Z,20.17
2023-05-18T15:51:02.434Z,19.91
2023-05-18T15:53:29.021Z,22.86
2023-05-18T15:55:59.061Z,23.63
2023-05-18T15:58:26.806Z,21.93
2023-05-18T16:00:53.758Z,23.76
2023-05-18T16:03:20.756Z,23.73
2023-05-18T16:05:47.442Z,23.76
2023-05-18T16:08:14.268Z,23.83
2023-05-18T16:10:41.520Z,22.73
2023-05-18T16:13:08.210Z,22.25
2023-05-18T16:15:35.402Z,21.71
2023-05-18T16:18:02.299Z,20.85
2023-05-18T16:20:29.290Z,20.71
2023-05-18T16:22:56.381Z,20.42
2023-05-18T16:25:23.535Z,19.71
2023-05-18T16:27:50.361Z,19.82
2023-05-18T16:30:17.091Z,19.85
2023-05-18T16:32:44.519Z,19.86
2023-05-18T16:35:11.602Z,19.88
2023-05-18T16:37:38.790Z,20.51
2023-05-18T16:40:06.131Z,20.61
2023-05-18T16:42:33.166Z,20.02
2023-05-18T16:44:59.926Z,19.81
2023-05-18T16:47:27.688Z,19.31
2023-05-18T16:49:54.789Z,18.56
2023-05-18T16:52:21.595Z,18.13
2023-05-18T16:54:48.465Z,17.94
2023-05-18T16:57:15.688Z,17.76
2023-05-18T16:59:42.583Z,17.66
2023-05-18T17:02:13.318Z,17.52
2023-05-18T17:04:45.895Z,17.43
2023-05-18T17:07:12.744Z,17.44
2023-05-18T17:09:41.627Z,17.33
2023-05-18T17:12:12.148Z,17.20
2023-05-18T17:14:38.744Z,17.25
2023-05-18T17:17:06.730Z,17.34
2023-05-18T17:19:35.184Z,16.94
2023-05-18T17:22:03.084Z,16.70
2023-05-18T17:24:29.827Z,16.36
2023-05-18T17:26:56.493Z,16.35
2023-05-18T17:29:23.473Z,16.22
2023-05-18T17:31:50.245Z,16.24
2023-05-18T17:34:17.013Z,16.26
2023-05-18T17:36:45.050Z,16.07
2023-05-18T17:39:12.593Z,15.89
2023-05-18T17:41:39.266Z,15.83
2023-05-18T17:44:06.229Z,15.82
2023-05-18T17:46:32.938Z,15.74
2023-05-18T17:49:02.056Z,15.49
2023-05-18T17:51:28.750Z,15.38
2023-05-18T17:53:56.544Z,15.27
2023-05-18T17:56:24.850Z,15.22
2023-05-18T17:58:53.200Z,15.11
2023-05-18T18:01:20.437Z,15.14
2023-05-18T18:03:48.911Z,15.07
2023-05-18T18:06:17.712Z,15.08
2023-05-18T18:08:44.983Z,15.02
2023-05-18T18:11:11.835Z,14.92
2023-05-18T18:13:38.470Z,14.81
2023-05-18T18:16:05.892Z,14.74
2023-05-18T18:18:32.820Z,14.72
2023-05-18T18:20:59.547Z,14.65
2023-05-18T18:23:26.176Z,14.58
2023-05-18T18:25:52.947Z,14.59
2023-05-18T18:28:19.730Z,14.54
2023-05-18T18:30:47.229Z,14.43
2023-05-18T18:33:16.750Z,14.40
2023-05-18T18:35:43.587Z,14.39
2023-05-18T18:38:10.808Z,14.33
2023-05-18T18:40:37.534Z,14.26
2023-05-18T18:43:04.353Z,14.20
2023-05-18T18:45:32.125Z,14.21
2023-05-18T18:47:59.535Z,14.12
2023-05-18T18:50:26.470Z,14.12
2023-05-18T18:52:53.420Z,14.05
2023-05-18T18:55:20.393Z,14.00
2023-05-18T18:57:47.138Z,13.89
2023-05-18T19:00:20.226Z,13.88
2023-05-18T19:02:47.590Z,13.69
2023-05-18T19:05:14.553Z,13.64
2023-05-18T19:07:41.547Z,13.62
2023-05-18T19:10:10.081Z,13.66
2023-05-18T19:12:36.788Z,13.61
2023-05-18T19:15:03.677Z,13.54
2023-05-18T19:17:30.440Z,13.52
2023-05-18T19:19:58.514Z,13.44
2023-05-18T19:22:25.317Z,13.41
2023-05-18T19:24:51.930Z,13.39
2023-05-18T19:27:18.715Z,13.35
2023-05-18T19:29:45.602Z,13.26
2023-05-18T19:32:12.427Z,13.19
2023-05-18T19:34:39.140Z,13.18
2023-05-18T19:37:05.908Z,13.04
2023-05-18T19:39:32.577Z,13.02
2023-05-18T19:41:59.366Z,12.93
2023-05-18T19:44:26.158Z,12.79
2023-05-18T19:46:52.808Z,12.76
2023-05-18T19:49:19.446Z,12.74
2023-05-18T19:51:46.217Z,12.67
2023-05-18T19:54:12.837Z,12.58
2023-05-18T19:56:39.627Z,12.50
2023-05-18T19:59:06.342Z,12.50
2023-05-18T20:01:33.821Z,12.43
2023-05-18T20:04:00.633Z,12.40
2023-05-18T20:06:31.864Z,12.43
2023-05-18T20:08:58.737Z,12.41
2023-05-18T20:11:25.959Z,12.34
2023-05-18T20:13:52.664Z,12.27
2023-05-18T20:16:19.352Z,12.23
2023-05-18T20:18:46.552Z,12.25
2023-05-18T20:21:13.407Z,12.18
2023-05-18T20:23:40.145Z,12.16
2023-05-18T20:26:06.993Z,12.12
2023-05-18T20:28:33.863Z,12.09
2023-05-18T20:31:00.682Z,11.97
2023-05-18T20:33:30.136Z,12.00
2023-05-18T20:35:56.887Z,11.96
2023-05-18T20:38:25.803Z,11.91
2023-05-18T20:40:53.660Z,11.93
2023-05-18T20:43:21.334Z,11.93
2023-05-18T20:45:49.462Z,11.83
2023-05-18T20:48:24.460Z,11.78
2023-05-18T20:50:51.910Z,11.81
2023-05-18T20:53:19.146Z,11.76
2023-05-18T20:55:49.803Z,11.64
2023-05-18T20:58:19.601Z,11.73
2023-05-18T21:00:46.716Z,11.71
2023-05-18T21:03:14.672Z,11.74
2023-05-18T21:05:41.695Z,11.71
2023-05-18T21:08:08.363Z,11.72
2023-05-18T21:10:35.584Z,11.58
2023-05-18T21:13:02.613Z,11.59
2023-05-18T21:15:29.701Z,11.58
2023-05-18T21:17:56.568Z,11.57
2023-05-18T21:20:23.353Z,11.53
2023-05-18T21:22:50.000Z,11.57
2023-05-18T21:25:17.852Z,11.49
2023-05-18T21:27:44.477Z,11.56
2023-05-18T21:30:12.865Z,11.57
2023-05-18T21:32:40.616Z,11.53
2023-05-18T21:35:07.711Z,11.51
2023-05-18T21:37:34.425Z,11.51
2023-05-18T21:40:01.467Z,11.49
2023-05-18T21:42:28.183Z,11.44
2023-05-18T21:44:54.969Z,11.30
2023-05-18T21:47:21.695Z,11.33
2023-05-18T21:49:48.432Z,11.36
2023-05-18T21:52:15.527Z,11.43
2023-05-18T21:54:42.397Z,11.44
2023-05-18T21:57:09.088Z,11.41
2023-05-18T21:59:35.918Z,11.44
2023-05-18T22:02:02.593Z,11.39
2023-05-18T22:04:29.357Z,11.36
2023-05-18T22:06:56.091Z,11.35
2023-05-18T22:09:22.914Z,11.27
2023-05-18T22:11:49.557Z,11.30
2023-05-18T22:14:17.954Z,11.23
2023-05-18T22:16:45.246Z,11.21
2023-05-18T22:19:12.091Z,11.11
2023-05-18T22:21:38.925Z,11.10
2023-05-18T22:24:06.044Z,11.05
2023-05-18T22:26:32.861Z,10.90
2023-05-18T22:28:59.613Z,10.73
2023-05-18T22:31:26.447Z,10.74
2023-05-18T22:33:54.041Z,10.56
2023-05-18T22:36:21.861Z,10.37
2023-05-18T22:38:49.916Z,10.36
2023-05-18T22:41:17.167Z,10.27
2023-05-18T22:43:43.881Z,10.15
2023-05-18T22:46:10.903Z,9.98
2023-05-18T22:48:38.058Z,9.83
2023-05-18T22:51:06.394Z,9.81
2023-05-18T22:53:33.623Z,9.65
2023-05-18T22:56:00.390Z,9.53
2023-05-18T22:58:27.098Z,9.40
2023-05-18T23:00:53.901Z,9.42
2023-05-18T23:03:20.626Z,9.24
2023-05-18T23:05:48.427Z,9.16
2023-05-18T23:08:16.125Z,9.05
2023-05-18T23:10:44.341Z,9.03
2023-05-18T23:13:11.863Z,8.85
2023-05-18T23:15:38.906Z,8.78
2023-05-18T23:18:09.335Z,8.70
2023-05-18T23:20:36.301Z,8.58
2023-05-18T23:23:03.037Z,8.48
2023-05-18T23:25:29.850Z,8.45
2023-05-18T23:27:56.584Z,8.36
2023-05-18T23:30:23.251Z,8.25
2023-05-18T23:32:50.276Z,8.26
2023-05-18T23:35:17.938Z,8.13
2023-05-18T23:37:48.864Z,8.09
2023-05-18T23:40:19.171Z,8.06
2023-05-18T23:42:46.396Z,7.96
2023-05-18T23:45:13.692Z,7.93
2023-05-18T23:47:40.726Z,7.86
2023-05-18T23:50:08.175Z,7.75
2023-05-18T23:52:35.632Z,7.66
2023-05-18T23:55:04.244Z,7.66
2023-05-18T23:57:31.646Z,7.66
2023-05-18T23:59:58.663Z,7.54
